sensor_id;sensor_type;location;lat;lon;timestamp;P1;durP1;ratioP1;P2;durP2;ratioP2
28772;SDS011;15925;51.222;5.678;2022-11-14T00:01:04;7.40;;;4.20;;
28772;SDS011;15925;51.222;5.678;2022-11-14T00:03:52;10.73;;;3.65;;
28772;SDS011;15925;51.222;5.678;2022-11-14T00:06:37;9.38;;;3.50;;
28772;SDS011;15925;51.222;5.678;2022-11-14T00:09:25;15.23;;;4.90;;
28772;SDS011;15925;51.222;5.678;2022-11-14T00:12:10;17.38;;;5.22;;
28772;SDS011;15925;51.222;5.678;2022-11-14T00:14:55;13.95;;;4.75;;
28772;SDS011;15925;51.222;5.678;2022-11-14T00:17:39;9.73;;;4.53;;
28772;SDS011;15925;51.222;5.678;2022-11-14T00:20:24;7.50;;;3.35;;
28772;SDS011;15925;51.222;5.678;2022-11-14T00:23:08;8.43;;;3.88;;
28772;SDS011;15925;51.222;5.678;2022-11-14T00:25:52;7.22;;;3.53;;
28772;SDS011;15925;51.222;5.678;2022-11-14T00:28:36;9.52;;;4.18;;
28772;SDS011;15925;51.222;5.678;2022-11-14T00:31:20;13.90;;;3.72;;
28772;SDS011;15925;51.222;5.678;2022-11-14T00:34:05;4.20;;;3.42;;
28772;SDS011;15925;51.222;5.678;2022-11-14T00:36:49;20.13;;;4.05;;
28772;SDS011;15925;51.222;5.678;2022-11-14T00:39:34;4.97;;;2.50;;
28772;SDS011;15925;51.222;5.678;2022-11-14T00:42:18;14.48;;;3.60;;
28772;SDS011;15925;51.222;5.678;2022-11-14T00:45:02;11.20;;;5.10;;
28772;SDS011;15925;51.222;5.678;2022-11-14T00:47:47;6.95;;;2.97;;
28772;SDS011;15925;51.222;5.678;2022-11-14T00:50:31;9.75;;;3.53;;
28772;SDS011;15925;51.222;5.678;2022-11-14T00:53:15;6.80;;;3.13;;
28772;SDS011;15925;51.222;5.678;2022-11-14T00:55:59;7.07;;;3.88;;
28772;SDS011;15925;51.222;5.678;2022-11-14T00:58:44;8.75;;;3.47;;
28772;SDS011;15925;51.222;5.678;2022-11-14T01:01:28;6.72;;;2.92;;
28772;SDS011;15925;51.222;5.678;2022-11-14T01:04:12;10.18;;;3.17;;
28772;SDS011;15925;51.222;5.678;2022-11-14T01:06:57;10.80;;;3.25;;
28772;SDS011;15925;51.222;5.678;2022-11-14T01:09:41;8.88;;;4.55;;
28772;SDS011;15925;51.222;5.678;2022-11-14T01:12:25;6.07;;;3.88;;
28772;SDS011;15925;51.222;5.678;2022-11-14T01:15:12;6.20;;;4.22;;
28772;SDS011;15925;51.222;5.678;2022-11-14T01:17:56;11.43;;;4.63;;
28772;SDS011;15925;51.222;5.678;2022-11-14T01:20:41;9.23;;;3.22;;
28772;SDS011;15925;51.222;5.678;2022-11-14T01:23:27;6.55;;;4.00;;
28772;SDS011;15925;51.222;5.678;2022-11-14T01:26:12;7.22;;;3.08;;
28772;SDS011;15925;51.222;5.678;2022-11-14T01:28:57;9.20;;;4.57;;
28772;SDS011;15925;51.222;5.678;2022-11-14T01:31:41;7.00;;;3.38;;
28772;SDS011;15925;51.222;5.678;2022-11-14T01:34:26;12.35;;;5.15;;
28772;SDS011;15925;51.222;5.678;2022-11-14T01:37:12;6.93;;;4.53;;
28772;SDS011;15925;51.222;5.678;2022-11-14T01:39:56;4.97;;;3.17;;
28772;SDS011;15925;51.222;5.678;2022-11-14T01:42:41;8.85;;;4.03;;
28772;SDS011;15925;51.222;5.678;2022-11-14T01:48:49;21.35;;;4.13;;
28772;SDS011;15925;51.222;5.678;2022-11-14T01:51:41;12.55;;;3.50;;
28772;SDS011;15925;51.222;5.678;2022-11-14T01:54:30;7.63;;;2.90;;
28772;SDS011;15925;51.222;5.678;2022-11-14T01:57:19;8.32;;;3.13;;
28772;SDS011;15925;51.222;5.678;2022-11-14T02:00:18;7.28;;;3.03;;
28772;SDS011;15925;51.222;5.678;2022-11-14T02:03:02;6.47;;;3.83;;
28772;SDS011;15925;51.222;5.678;2022-11-14T02:05:47;7.72;;;3.75;;
28772;SDS011;15925;51.222;5.678;2022-11-14T02:08:33;5.68;;;3.60;;
28772;SDS011;15925;51.222;5.678;2022-11-14T02:11:19;6.70;;;3.45;;
28772;SDS011;15925;51.222;5.678;2022-11-14T02:14:03;7.80;;;3.13;;
28772;SDS011;15925;51.222;5.678;2022-11-14T02:16:48;13.43;;;3.72;;
28772;SDS011;15925;51.222;5.678;2022-11-14T02:22:38;6.68;;;3.72;;
28772;SDS011;15925;51.222;5.678;2022-11-14T02:25:24;13.70;;;3.22;;
28772;SDS011;15925;51.222;5.678;2022-11-14T02:28:08;10.65;;;4.72;;
28772;SDS011;15925;51.222;5.678;2022-11-14T02:30:53;6.68;;;3.97;;
28772;SDS011;15925;51.222;5.678;2022-11-14T02:33:38;5.85;;;3.22;;
28772;SDS011;15925;51.222;5.678;2022-11-14T02:36:22;9.20;;;4.32;;
28772;SDS011;15925;51.222;5.678;2022-11-14T02:39:07;7.68;;;3.90;;
28772;SDS011;15925;51.222;5.678;2022-11-14T02:41:51;8.57;;;3.25;;
28772;SDS011;15925;51.222;5.678;2022-11-14T02:44:35;9.63;;;3.65;;
28772;SDS011;15925;51.222;5.678;2022-11-14T02:47:20;7.05;;;3.70;;
28772;SDS011;15925;51.222;5.678;2022-11-14T02:50:07;4.13;;;3.35;;
28772;SDS011;15925;51.222;5.678;2022-11-14T02:52:52;10.00;;;4.35;;
28772;SDS011;15925;51.222;5.678;2022-11-14T02:55:36;5.55;;;3.40;;
28772;SDS011;15925;51.222;5.678;2022-11-14T02:58:20;8.45;;;3.00;;
28772;SDS011;15925;51.222;5.678;2022-11-14T03:01:04;6.55;;;4.15;;
28772;SDS011;15925;51.222;5.678;2022-11-14T03:03:49;8.90;;;3.70;;
28772;SDS011;15925;51.222;5.678;2022-11-14T03:06:34;10.27;;;2.90;;
28772;SDS011;15925;51.222;5.678;2022-11-14T03:09:18;5.25;;;2.83;;
28772;SDS011;15925;51.222;5.678;2022-11-14T03:12:02;5.90;;;3.60;;
28772;SDS011;15925;51.222;5.678;2022-11-14T03:14:47;7.13;;;3.88;;
28772;SDS011;15925;51.222;5.678;2022-11-14T03:17:31;5.95;;;3.05;;
28772;SDS011;15925;51.222;5.678;2022-11-14T03:20:17;7.32;;;3.63;;
28772;SDS011;15925;51.222;5.678;2022-11-14T03:23:01;7.78;;;2.88;;
28772;SDS011;15925;51.222;5.678;2022-11-14T03:25:46;9.43;;;3.55;;
28772;SDS011;15925;51.222;5.678;2022-11-14T03:28:30;7.18;;;3.40;;
28772;SDS011;15925;51.222;5.678;2022-11-14T03:31:15;5.93;;;3.30;;
28772;SDS011;15925;51.222;5.678;2022-11-14T03:33:59;4.95;;;2.67;;
28772;SDS011;15925;51.222;5.678;2022-11-14T03:36:43;3.75;;;2.25;;
28772;SDS011;15925;51.222;5.678;2022-11-14T03:39:27;4.03;;;2.67;;
28772;SDS011;15925;51.222;5.678;2022-11-14T03:42:11;5.80;;;3.65;;
28772;SDS011;15925;51.222;5.678;2022-11-14T03:44:56;5.88;;;2.70;;
28772;SDS011;15925;51.222;5.678;2022-11-14T03:47:39;8.95;;;3.00;;
28772;SDS011;15925;51.222;5.678;2022-11-14T03:50:24;10.48;;;3.33;;
28772;SDS011;15925;51.222;5.678;2022-11-14T03:53:08;6.05;;;3.05;;
28772;SDS011;15925;51.222;5.678;2022-11-14T03:55:54;7.30;;;3.88;;
28772;SDS011;15925;51.222;5.678;2022-11-14T03:58:38;3.75;;;2.95;;
28772;SDS011;15925;51.222;5.678;2022-11-14T04:01:22;6.57;;;3.25;;
28772;SDS011;15925;51.222;5.678;2022-11-14T04:04:06;5.57;;;3.28;;
28772;SDS011;15925;51.222;5.678;2022-11-14T04:06:51;6.10;;;3.20;;
28772;SDS011;15925;51.222;5.678;2022-11-14T04:09:35;6.65;;;2.78;;
28772;SDS011;15925;51.222;5.678;2022-11-14T04:12:19;11.65;;;2.70;;
28772;SDS011;15925;51.222;5.678;2022-11-14T04:15:03;5.40;;;3.28;;
28772;SDS011;15925;51.222;5.678;2022-11-14T04:17:48;6.35;;;3.63;;
28772;SDS011;15925;51.222;5.678;2022-11-14T04:20:32;15.10;;;3.05;;
28772;SDS011;15925;51.222;5.678;2022-11-14T04:23:17;21.42;;;4.00;;
28772;SDS011;15925;51.222;5.678;2022-11-14T04:26:02;7.38;;;2.53;;
28772;SDS011;15925;51.222;5.678;2022-11-14T04:28:46;7.13;;;3.08;;
28772;SDS011;15925;51.222;5.678;2022-11-14T04:31:30;6.97;;;3.75;;
28772;SDS011;15925;51.222;5.678;2022-11-14T04:34:16;9.00;;;3.20;;
28772;SDS011;15925;51.222;5.678;2022-11-14T04:37:01;5.65;;;3.25;;
28772;SDS011;15925;51.222;5.678;2022-11-14T04:39:45;11.88;;;3.53;;
28772;SDS011;15925;51.222;5.678;2022-11-14T04:42:29;5.80;;;2.58;;
28772;SDS011;15925;51.222;5.678;2022-11-14T04:45:13;9.65;;;3.58;;
28772;SDS011;15925;51.222;5.678;2022-11-14T04:47:58;10.43;;;2.88;;
28772;SDS011;15925;51.222;5.678;2022-11-14T04:50:43;13.63;;;3.13;;
28772;SDS011;15925;51.222;5.678;2022-11-14T04:53:28;5.32;;;3.05;;
28772;SDS011;15925;51.222;5.678;2022-11-14T04:56:12;6.60;;;2.88;;
28772;SDS011;15925;51.222;5.678;2022-11-14T04:58:57;5.95;;;3.45;;
28772;SDS011;15925;51.222;5.678;2022-11-14T05:01:41;8.63;;;2.78;;
28772;SDS011;15925;51.222;5.678;2022-11-14T05:04:25;4.68;;;2.50;;
28772;SDS011;15925;51.222;5.678;2022-11-14T05:07:10;4.78;;;2.90;;
28772;SDS011;15925;51.222;5.678;2022-11-14T05:09:54;3.92;;;1.90;;
28772;SDS011;15925;51.222;5.678;2022-11-14T05:12:38;3.88;;;2.30;;
28772;SDS011;15925;51.222;5.678;2022-11-14T05:15:23;8.88;;;3.63;;
28772;SDS011;15925;51.222;5.678;2022-11-14T05:18:07;7.75;;;3.15;;
28772;SDS011;15925;51.222;5.678;2022-11-14T05:20:51;7.30;;;3.97;;
28772;SDS011;15925;51.222;5.678;2022-11-14T05:23:35;5.00;;;2.42;;
28772;SDS011;15925;51.222;5.678;2022-11-14T05:26:19;5.35;;;3.30;;
28772;SDS011;15925;51.222;5.678;2022-11-14T05:29:04;4.55;;;2.97;;
28772;SDS011;15925;51.222;5.678;2022-11-14T05:31:48;5.13;;;2.90;;
28772;SDS011;15925;51.222;5.678;2022-11-14T05:34:32;5.50;;;2.53;;
28772;SDS011;15925;51.222;5.678;2022-11-14T05:37:16;10.88;;;3.72;;
28772;SDS011;15925;51.222;5.678;2022-11-14T05:40:01;9.15;;;3.78;;
28772;SDS011;15925;51.222;5.678;2022-11-14T05:42:46;7.30;;;3.17;;
28772;SDS011;15925;51.222;5.678;2022-11-14T05:45:30;4.85;;;2.78;;
28772;SDS011;15925;51.222;5.678;2022-11-14T05:48:14;6.40;;;2.20;;
28772;SDS011;15925;51.222;5.678;2022-11-14T05:50:59;6.10;;;3.00;;
28772;SDS011;15925;51.222;5.678;2022-11-14T05:53:45;4.03;;;2.75;;
28772;SDS011;15925;51.222;5.678;2022-11-14T05:56:29;6.00;;;3.47;;
28772;SDS011;15925;51.222;5.678;2022-11-14T05:59:13;5.00;;;3.17;;
28772;SDS011;15925;51.222;5.678;2022-11-14T06:01:57;4.07;;;2.33;;
28772;SDS011;15925;51.222;5.678;2022-11-14T06:04:42;6.40;;;2.50;;
28772;SDS011;15925;51.222;5.678;2022-11-14T06:07:26;15.45;;;2.25;;
28772;SDS011;15925;51.222;5.678;2022-11-14T06:10:10;7.40;;;2.30;;
28772;SDS011;15925;51.222;5.678;2022-11-14T06:12:56;5.10;;;2.60;;
28772;SDS011;15925;51.222;5.678;2022-11-14T06:15:40;7.68;;;3.05;;
28772;SDS011;15925;51.222;5.678;2022-11-14T06:18:24;4.30;;;2.80;;
28772;SDS011;15925;51.222;5.678;2022-11-14T06:21:18;3.22;;;1.75;;
28772;SDS011;15925;51.222;5.678;2022-11-14T06:24:04;5.55;;;3.17;;
28772;SDS011;15925;51.222;5.678;2022-11-14T06:26:48;4.25;;;2.13;;
28772;SDS011;15925;51.222;5.678;2022-11-14T06:29:32;5.45;;;2.90;;
28772;SDS011;15925;51.222;5.678;2022-11-14T06:32:17;4.68;;;2.53;;
28772;SDS011;15925;51.222;5.678;2022-11-14T06:35:04;4.57;;;2.60;;
28772;SDS011;15925;51.222;5.678;2022-11-14T06:37:50;5.95;;;2.80;;
28772;SDS011;15925;51.222;5.678;2022-11-14T06:40:35;2.88;;;2.25;;
28772;SDS011;15925;51.222;5.678;2022-11-14T06:43:19;8.40;;;3.72;;
28772;SDS011;15925;51.222;5.678;2022-11-14T06:46:04;3.90;;;2.42;;
28772;SDS011;15925;51.222;5.678;2022-11-14T06:48:49;4.53;;;3.13;;
28772;SDS011;15925;51.222;5.678;2022-11-14T06:51:35;9.30;;;2.97;;
28772;SDS011;15925;51.222;5.678;2022-11-14T06:54:19;3.80;;;2.30;;
28772;SDS011;15925;51.222;5.678;2022-11-14T06:57:04;9.45;;;3.33;;
28772;SDS011;15925;51.222;5.678;2022-11-14T06:59:48;4.65;;;2.78;;
28772;SDS011;15925;51.222;5.678;2022-11-14T07:02:32;8.65;;;3.22;;
28772;SDS011;15925;51.222;5.678;2022-11-14T07:05:17;2.72;;;2.20;;
28772;SDS011;15925;51.222;5.678;2022-11-14T07:08:01;6.57;;;3.13;;
28772;SDS011;15925;51.222;5.678;2022-11-14T07:10:45;6.15;;;3.92;;
28772;SDS011;15925;51.222;5.678;2022-11-14T07:13:30;8.38;;;2.72;;
28772;SDS011;15925;51.222;5.678;2022-11-14T07:16:15;11.40;;;3.58;;
28772;SDS011;15925;51.222;5.678;2022-11-14T07:19:00;3.22;;;2.05;;
28772;SDS011;15925;51.222;5.678;2022-11-14T07:21:45;3.63;;;1.75;;
28772;SDS011;15925;51.222;5.678;2022-11-14T07:24:31;3.42;;;1.90;;
28772;SDS011;15925;51.222;5.678;2022-11-14T07:27:15;4.85;;;2.90;;
28772;SDS011;15925;51.222;5.678;2022-11-14T07:29:59;12.80;;;2.55;;
28772;SDS011;15925;51.222;5.678;2022-11-14T07:32:43;6.57;;;3.03;;
28772;SDS011;15925;51.222;5.678;2022-11-14T07:35:28;7.70;;;2.90;;
28772;SDS011;15925;51.222;5.678;2022-11-14T07:38:12;6.53;;;3.63;;
28772;SDS011;15925;51.222;5.678;2022-11-14T07:40:57;5.55;;;3.25;;
28772;SDS011;15925;51.222;5.678;2022-11-14T07:43:43;5.18;;;3.13;;
28772;SDS011;15925;51.222;5.678;2022-11-14T07:46:27;3.97;;;2.63;;
28772;SDS011;15925;51.222;5.678;2022-11-14T07:49:12;4.05;;;2.17;;
28772;SDS011;15925;51.222;5.678;2022-11-14T07:51:56;4.70;;;2.53;;
28772;SDS011;15925;51.222;5.678;2022-11-14T07:54:40;4.93;;;3.05;;
28772;SDS011;15925;51.222;5.678;2022-11-14T07:57:25;6.60;;;2.80;;
28772;SDS011;15925;51.222;5.678;2022-11-14T08:00:09;7.68;;;2.38;;
28772;SDS011;15925;51.222;5.678;2022-11-14T08:02:54;4.43;;;3.10;;
28772;SDS011;15925;51.222;5.678;2022-11-14T08:05:38;5.75;;;2.88;;
28772;SDS011;15925;51.222;5.678;2022-11-14T08:08:22;5.25;;;2.92;;
28772;SDS011;15925;51.222;5.678;2022-11-14T08:11:06;3.40;;;1.95;;
28772;SDS011;15925;51.222;5.678;2022-11-14T08:13:51;7.15;;;3.33;;
28772;SDS011;15925;51.222;5.678;2022-11-14T08:16:35;4.63;;;2.30;;
28772;SDS011;15925;51.222;5.678;2022-11-14T08:19:19;3.33;;;2.22;;
28772;SDS011;15925;51.222;5.678;2022-11-14T08:22:05;8.45;;;3.45;;
28772;SDS011;15925;51.222;5.678;2022-11-14T08:24:49;13.45;;;4.43;;
28772;SDS011;15925;51.222;5.678;2022-11-14T08:27:33;11.52;;;3.63;;
28772;SDS011;15925;51.222;5.678;2022-11-14T08:30:17;8.70;;;4.25;;
28772;SDS011;15925;51.222;5.678;2022-11-14T08:33:03;6.68;;;3.00;;
28772;SDS011;15925;51.222;5.678;2022-11-14T08:35:47;8.13;;;3.50;;
28772;SDS011;15925;51.222;5.678;2022-11-14T08:38:32;5.80;;;3.75;;
28772;SDS011;15925;51.222;5.678;2022-11-14T08:41:17;16.90;;;4.13;;
28772;SDS011;15925;51.222;5.678;2022-11-14T08:44:02;7.65;;;3.65;;
28772;SDS011;15925;51.222;5.678;2022-11-14T08:46:46;5.97;;;3.80;;
28772;SDS011;15925;51.222;5.678;2022-11-14T08:49:32;8.57;;;3.85;;
28772;SDS011;15925;51.222;5.678;2022-11-14T08:52:16;11.15;;;3.92;;
28772;SDS011;15925;51.222;5.678;2022-11-14T08:55:00;15.18;;;3.67;;
28772;SDS011;15925;51.222;5.678;2022-11-14T08:57:44;7.22;;;3.92;;
28772;SDS011;15925;51.222;5.678;2022-11-14T09:00:29;12.10;;;5.07;;
28772;SDS011;15925;51.222;5.678;2022-11-14T09:03:13;11.82;;;4.07;;
28772;SDS011;15925;51.222;5.678;2022-11-14T09:05:58;32.63;;;3.75;;
28772;SDS011;15925;51.222;5.678;2022-11-14T09:08:43;9.27;;;3.60;;
28772;SDS011;15925;51.222;5.678;2022-11-14T09:11:27;20.50;;;4.57;;
28772;SDS011;15925;51.222;5.678;2022-11-14T09:14:11;9.65;;;4.95;;
28772;SDS011;15925;51.222;5.678;2022-11-14T09:16:56;21.98;;;5.50;;
28772;SDS011;15925;51.222;5.678;2022-11-14T09:19:40;15.38;;;4.82;;
28772;SDS011;15925;51.222;5.678;2022-11-14T09:22:24;15.98;;;5.63;;
28772;SDS011;15925;51.222;5.678;2022-11-14T09:25:08;11.13;;;3.42;;
28772;SDS011;15925;51.222;5.678;2022-11-14T09:27:53;7.38;;;4.05;;
28772;SDS011;15925;51.222;5.678;2022-11-14T09:30:37;8.40;;;4.25;;
28772;SDS011;15925;51.222;5.678;2022-11-14T09:33:23;11.35;;;4.97;;
28772;SDS011;15925;51.222;5.678;2022-11-14T09:36:10;25.63;;;5.30;;
28772;SDS011;15925;51.222;5.678;2022-11-14T09:38:58;8.25;;;4.85;;
28772;SDS011;15925;51.222;5.678;2022-11-14T09:42:05;16.63;;;5.45;;
28772;SDS011;15925;51.222;5.678;2022-11-14T09:44:58;10.30;;;4.50;;
28772;SDS011;15925;51.222;5.678;2022-11-14T09:51:03;13.60;;;5.22;;
28772;SDS011;15925;51.222;5.678;2022-11-14T09:57:15;13.77;;;5.82;;
28772;SDS011;15925;51.222;5.678;2022-11-14T10:00:01;9.30;;;5.38;;
28772;SDS011;15925;51.222;5.678;2022-11-14T10:02:58;17.17;;;5.53;;
28772;SDS011;15925;51.222;5.678;2022-11-14T10:08:55;13.38;;;4.97;;
28772;SDS011;15925;51.222;5.678;2022-11-14T10:11:45;22.92;;;6.65;;
28772;SDS011;15925;51.222;5.678;2022-11-14T10:18:01;14.63;;;5.40;;
28772;SDS011;15925;51.222;5.678;2022-11-14T10:21:04;17.52;;;7.43;;
28772;SDS011;15925;51.222;5.678;2022-11-14T10:24:30;12.13;;;4.82;;
28772;SDS011;15925;51.222;5.678;2022-11-14T10:28:02;16.00;;;5.50;;
28772;SDS011;15925;51.222;5.678;2022-11-14T10:31:15;15.55;;;6.57;;
28772;SDS011;15925;51.222;5.678;2022-11-14T10:34:06;15.25;;;6.38;;
28772;SDS011;15925;51.222;5.678;2022-11-14T10:37:09;13.95;;;7.30;;
28772;SDS011;15925;51.222;5.678;2022-11-14T10:40:02;20.98;;;7.78;;
28772;SDS011;15925;51.222;5.678;2022-11-14T10:43:06;16.73;;;8.18;;
28772;SDS011;15925;51.222;5.678;2022-11-14T10:46:15;21.75;;;6.80;;
28772;SDS011;15925;51.222;5.678;2022-11-14T10:49:15;20.25;;;8.20;;
28772;SDS011;15925;51.222;5.678;2022-11-14T10:52:13;18.63;;;6.95;;
28772;SDS011;15925;51.222;5.678;2022-11-14T10:55:05;18.27;;;7.28;;
28772;SDS011;15925;51.222;5.678;2022-11-14T10:57:55;26.20;;;10.73;;
28772;SDS011;15925;51.222;5.678;2022-11-14T11:00:40;16.25;;;6.28;;
28772;SDS011;15925;51.222;5.678;2022-11-14T11:03:40;18.25;;;7.50;;
28772;SDS011;15925;51.222;5.678;2022-11-14T11:06:26;15.48;;;7.38;;
28772;SDS011;15925;51.222;5.678;2022-11-14T11:09:12;24.67;;;7.55;;
28772;SDS011;15925;51.222;5.678;2022-11-14T11:12:18;17.42;;;7.93;;
28772;SDS011;15925;51.222;5.678;2022-11-14T11:15:07;16.40;;;7.88;;
28772;SDS011;15925;51.222;5.678;2022-11-14T11:18:03;13.75;;;6.25;;
28772;SDS011;15925;51.222;5.678;2022-11-14T11:24:04;18.55;;;8.18;;
28772;SDS011;15925;51.222;5.678;2022-11-14T11:26:48;13.20;;;6.40;;
28772;SDS011;15925;51.222;5.678;2022-11-14T11:30:07;24.58;;;6.72;;
28772;SDS011;15925;51.222;5.678;2022-11-14T11:36:05;12.88;;;5.82;;
28772;SDS011;15925;51.222;5.678;2022-11-14T11:38:56;13.10;;;5.40;;
28772;SDS011;15925;51.222;5.678;2022-11-14T11:41:42;11.00;;;4.88;;
28772;SDS011;15925;51.222;5.678;2022-11-14T11:44:35;15.07;;;6.13;;
28772;SDS011;15925;51.222;5.678;2022-11-14T11:47:26;12.48;;;5.43;;
28772;SDS011;15925;51.222;5.678;2022-11-14T11:50:15;13.95;;;6.13;;
28772;SDS011;15925;51.222;5.678;2022-11-14T11:56:18;12.90;;;5.32;;
28772;SDS011;15925;51.222;5.678;2022-11-14T12:02:18;9.60;;;3.75;;
28772;SDS011;15925;51.222;5.678;2022-11-14T12:05:03;18.13;;;4.30;;
28772;SDS011;15925;51.222;5.678;2022-11-14T12:07:49;9.02;;;4.05;;
28772;SDS011;15925;51.222;5.678;2022-11-14T12:10:38;9.15;;;4.82;;
28772;SDS011;15925;51.222;5.678;2022-11-14T12:26:18;12.20;;;4.70;;
28772;SDS011;15925;51.222;5.678;2022-11-14T12:29:39;13.38;;;4.47;;
28772;SDS011;15925;51.222;5.678;2022-11-14T12:33:22;14.55;;;4.68;;
28772;SDS011;15925;51.222;5.678;2022-11-14T12:35:46;14.73;;;4.97;;
28772;SDS011;15925;51.222;5.678;2022-11-14T12:38:44;12.10;;;5.60;;
28772;SDS011;15925;51.222;5.678;2022-11-14T12:41:32;12.57;;;5.82;;
28772;SDS011;15925;51.222;5.678;2022-11-14T12:47:16;12.07;;;6.18;;
28772;SDS011;15925;51.222;5.678;2022-11-14T12:50:26;15.82;;;6.68;;
28772;SDS011;15925;51.222;5.678;2022-11-14T13:14:51;15.55;;;4.93;;
28772;SDS011;15925;51.222;5.678;2022-11-14T13:18:03;15.80;;;6.30;;
28772;SDS011;15925;51.222;5.678;2022-11-14T13:24:27;12.25;;;6.03;;
28772;SDS011;15925;51.222;5.678;2022-11-14T13:31:03;8.45;;;5.28;;
28772;SDS011;15925;51.222;5.678;2022-11-14T13:34:00;17.17;;;5.55;;
28772;SDS011;15925;51.222;5.678;2022-11-14T13:40:15;16.02;;;5.57;;
28772;SDS011;15925;51.222;5.678;2022-11-14T13:43:13;11.13;;;4.55;;
28772;SDS011;15925;51.222;5.678;2022-11-14T13:52:15;11.30;;;5.82;;
28772;SDS011;15925;51.222;5.678;2022-11-14T13:55:00;9.73;;;5.32;;
28772;SDS011;15925;51.222;5.678;2022-11-14T14:15:57;11.30;;;4.75;;
28772;SDS011;15925;51.222;5.678;2022-11-14T14:29:00;7.45;;;3.45;;
28772;SDS011;15925;51.222;5.678;2022-11-14T14:31:36;8.88;;;4.03;;
28772;SDS011;15925;51.222;5.678;2022-11-14T14:34:27;8.55;;;3.47;;
28772;SDS011;15925;51.222;5.678;2022-11-14T14:37:16;8.80;;;3.33;;
28772;SDS011;15925;51.222;5.678;2022-11-14T14:40:05;7.38;;;2.90;;
28772;SDS011;15925;51.222;5.678;2022-11-14T14:42:54;11.82;;;2.97;;
28772;SDS011;15925;51.222;5.678;2022-11-14T14:45:45;3.15;;;1.85;;
28772;SDS011;15925;51.222;5.678;2022-11-14T14:48:34;5.50;;;2.17;;
28772;SDS011;15925;51.222;5.678;2022-11-14T14:51:32;5.18;;;2.25;;
28772;SDS011;15925;51.222;5.678;2022-11-14T14:54:19;4.75;;;2.70;;
28772;SDS011;15925;51.222;5.678;2022-11-14T14:57:14;5.00;;;1.95;;
28772;SDS011;15925;51.222;5.678;2022-11-14T15:00:03;6.22;;;2.30;;
28772;SDS011;15925;51.222;5.678;2022-11-14T15:03:03;4.43;;;1.83;;
28772;SDS011;15925;51.222;5.678;2022-11-14T15:05:47;8.13;;;2.28;;
28772;SDS011;15925;51.222;5.678;2022-11-14T15:08:39;5.88;;;3.35;;
28772;SDS011;15925;51.222;5.678;2022-11-14T15:11:24;5.80;;;1.92;;
28772;SDS011;15925;51.222;5.678;2022-11-14T15:14:27;6.68;;;1.85;;
28772;SDS011;15925;51.222;5.678;2022-11-14T15:17:14;4.32;;;2.47;;
28772;SDS011;15925;51.222;5.678;2022-11-14T15:19:59;2.67;;;1.80;;
28772;SDS011;15925;51.222;5.678;2022-11-14T15:22:53;4.40;;;2.60;;
28772;SDS011;15925;51.222;5.678;2022-11-14T15:26:03;7.22;;;3.10;;
28772;SDS011;15925;51.222;5.678;2022-11-14T15:29:15;17.05;;;3.55;;
28772;SDS011;15925;51.222;5.678;2022-11-14T15:32:03;6.65;;;3.55;;
28772;SDS011;15925;51.222;5.678;2022-11-14T15:44:05;4.68;;;2.55;;
28772;SDS011;15925;51.222;5.678;2022-11-14T15:47:10;8.82;;;2.75;;
28772;SDS011;15925;51.222;5.678;2022-11-14T15:52:48;8.35;;;3.47;;
28772;SDS011;15925;51.222;5.678;2022-11-14T15:55:37;6.07;;;2.78;;
28772;SDS011;15925;51.222;5.678;2022-11-14T15:58:21;6.03;;;2.35;;
28772;SDS011;15925;51.222;5.678;2022-11-14T16:01:08;4.53;;;2.47;;
28772;SDS011;15925;51.222;5.678;2022-11-14T16:03:58;5.50;;;3.17;;
28772;SDS011;15925;51.222;5.678;2022-11-14T16:06:44;5.47;;;2.55;;
28772;SDS011;15925;51.222;5.678;2022-11-14T16:09:29;5.43;;;2.30;;
28772;SDS011;15925;51.222;5.678;2022-11-14T16:12:13;7.28;;;3.30;;
28772;SDS011;15925;51.222;5.678;2022-11-14T16:14:57;4.00;;;2.58;;
28772;SDS011;15925;51.222;5.678;2022-11-14T16:17:43;7.40;;;2.95;;
28772;SDS011;15925;51.222;5.678;2022-11-14T16:20:28;6.85;;;3.08;;
28772;SDS011;15925;51.222;5.678;2022-11-14T16:23:13;7.13;;;3.38;;
28772;SDS011;15925;51.222;5.678;2022-11-14T16:25:57;7.32;;;2.85;;
28772;SDS011;15925;51.222;5.678;2022-11-14T16:28:41;9.13;;;3.22;;
28772;SDS011;15925;51.222;5.678;2022-11-14T16:31:26;7.18;;;3.72;;
28772;SDS011;15925;51.222;5.678;2022-11-14T16:34:20;13.82;;;3.25;;
28772;SDS011;15925;51.222;5.678;2022-11-14T16:37:08;13.35;;;4.00;;
28772;SDS011;15925;51.222;5.678;2022-11-14T16:39:55;18.05;;;5.00;;
28772;SDS011;15925;51.222;5.678;2022-11-14T16:42:39;5.88;;;2.60;;
28772;SDS011;15925;51.222;5.678;2022-11-14T16:45:24;9.90;;;3.83;;
28772;SDS011;15925;51.222;5.678;2022-11-14T16:48:09;7.53;;;2.88;;
28772;SDS011;15925;51.222;5.678;2022-11-14T16:50:54;5.28;;;2.83;;
28772;SDS011;15925;51.222;5.678;2022-11-14T16:53:38;7.32;;;3.22;;
28772;SDS011;15925;51.222;5.678;2022-11-14T16:56:22;11.35;;;3.83;;
28772;SDS011;15925;51.222;5.678;2022-11-14T16:59:07;10.88;;;3.28;;
28772;SDS011;15925;51.222;5.678;2022-11-14T17:01:52;7.05;;;3.08;;
28772;SDS011;15925;51.222;5.678;2022-11-14T17:04:36;5.82;;;3.13;;
28772;SDS011;15925;51.222;5.678;2022-11-14T17:07:21;3.42;;;1.92;;
28772;SDS011;15925;51.222;5.678;2022-11-14T17:10:06;8.45;;;2.47;;
28772;SDS011;15925;51.222;5.678;2022-11-14T17:12:50;5.35;;;2.60;;
28772;SDS011;15925;51.222;5.678;2022-11-14T17:15:35;4.72;;;2.47;;
28772;SDS011;15925;51.222;5.678;2022-11-14T17:18:19;8.27;;;2.70;;
28772;SDS011;15925;51.222;5.678;2022-11-14T17:21:04;4.18;;;2.25;;
28772;SDS011;15925;51.222;5.678;2022-11-14T17:23:53;4.55;;;2.42;;
28772;SDS011;15925;51.222;5.678;2022-11-14T17:26:38;7.90;;;2.65;;
28772;SDS011;15925;51.222;5.678;2022-11-14T17:29:23;6.93;;;2.10;;
28772;SDS011;15925;51.222;5.678;2022-11-14T17:32:07;4.55;;;2.58;;
28772;SDS011;15925;51.222;5.678;2022-11-14T17:34:51;3.58;;;2.53;;
28772;SDS011;15925;51.222;5.678;2022-11-14T17:37:36;5.55;;;3.22;;
28772;SDS011;15925;51.222;5.678;2022-11-14T17:40:20;4.07;;;2.45;;
28772;SDS011;15925;51.222;5.678;2022-11-14T17:43:05;7.07;;;2.30;;
28772;SDS011;15925;51.222;5.678;2022-11-14T17:45:53;5.25;;;2.50;;
28772;SDS011;15925;51.222;5.678;2022-11-14T17:48:38;7.82;;;4.00;;
28772;SDS011;15925;51.222;5.678;2022-11-14T17:51:23;4.35;;;2.70;;
28772;SDS011;15925;51.222;5.678;2022-11-14T17:54:11;4.80;;;2.88;;
28772;SDS011;15925;51.222;5.678;2022-11-14T17:56:55;7.70;;;2.80;;
28772;SDS011;15925;51.222;5.678;2022-11-14T17:59:42;6.13;;;3.15;;
28772;SDS011;15925;51.222;5.678;2022-11-14T18:02:26;5.45;;;2.90;;
28772;SDS011;15925;51.222;5.678;2022-11-14T18:05:10;4.70;;;2.63;;
28772;SDS011;15925;51.222;5.678;2022-11-14T18:07:54;6.10;;;2.70;;
28772;SDS011;15925;51.222;5.678;2022-11-14T18:10:38;5.88;;;2.45;;
28772;SDS011;15925;51.222;5.678;2022-11-14T18:13:23;8.02;;;2.70;;
28772;SDS011;15925;51.222;5.678;2022-11-14T18:16:12;10.45;;;3.42;;
28772;SDS011;15925;51.222;5.678;2022-11-14T18:18:58;6.93;;;3.70;;
28772;SDS011;15925;51.222;5.678;2022-11-14T18:21:42;7.40;;;3.35;;
28772;SDS011;15925;51.222;5.678;2022-11-14T18:24:29;9.40;;;3.30;;
28772;SDS011;15925;51.222;5.678;2022-11-14T18:27:14;9.00;;;3.10;;
28772;SDS011;15925;51.222;5.678;2022-11-14T18:29:59;8.73;;;3.53;;
28772;SDS011;15925;51.222;5.678;2022-11-14T18:32:43;13.93;;;4.30;;
28772;SDS011;15925;51.222;5.678;2022-11-14T18:35:27;10.70;;;4.53;;
28772;SDS011;15925;51.222;5.678;2022-11-14T18:38:12;9.10;;;3.75;;
28772;SDS011;15925;51.222;5.678;2022-11-14T18:40:56;10.45;;;4.00;;
28772;SDS011;15925;51.222;5.678;2022-11-14T18:43:41;12.63;;;5.10;;
28772;SDS011;15925;51.222;5.678;2022-11-14T18:46:27;13.93;;;4.60;;
28772;SDS011;15925;51.222;5.678;2022-11-14T18:49:12;14.23;;;6.70;;